createdAt,value
2023-05-25T15:38:16.166Z,48.69
2023-05-25T15:39:16.053Z,47.52
2023-05-25T15:40:15.985Z,46.55
2023-05-25T15:41:15.911Z,45.27
2023-05-25T15:42:15.849Z,45.37
2023-05-25T15:43:15.783Z,46.24
2023-05-25T15:44:15.707Z,47.98
2023-05-25T15:45:15.639Z,48.95
2023-05-25T15:46:15.617Z,49.80
2023-05-25T15:47:15.500Z,50.02
2023-05-25T15:48:15.431Z,50.60
2023-05-25T15:49:15.358Z,49.15
2023-05-25T15:50:15.295Z,48.37
2023-05-25T15:51:15.213Z,47.79
2023-05-25T15:52:15.148Z,46.99
2023-05-25T15:53:15.092Z,46.89
2023-05-25T15:54:15.214Z,47.79
2023-05-25T15:55:14.941Z,47.98
2023-05-25T15:56:14.881Z,46.53
2023-05-25T15:57:14.793Z,46.53
2023-05-25T15:58:14.733Z,48.95
2023-05-25T15:59:14.672Z,48.06
2023-05-25T16:00:14.585Z,47.57
2023-05-25T16:01:14.532Z,47.47
2023-05-25T16:02:14.496Z,49.32
2023-05-25T16:03:14.378Z,49.90
2023-05-25T16:04:14.414Z,51.25
2023-05-25T16:05:14.243Z,50.77
2023-05-25T16:06:14.171Z,52.12
2023-05-25T16:07:14.110Z,51.45
2023-05-25T16:08:14.089Z,48.83
2023-05-25T16:09:13.957Z,48.15
2023-05-25T16:10:13.891Z,48.90
2023-05-25T16:11:13.841Z,51.04
2023-05-25T16:12:13.746Z,53.07
2023-05-25T16:13:13.672Z,52.29
2023-05-25T16:14:13.627Z,52.49
2023-05-25T16:15:13.534Z,52.49
2023-05-25T16:16:13.486Z,54.23
2023-05-25T16:17:14.394Z,53.77
2023-05-25T16:18:13.336Z,54.45
2023-05-25T16:19:14.202Z,52.87
2023-05-25T16:20:13.300Z,47.94
2023-05-25T16:21:13.123Z,48.22
2023-05-25T16:22:13.046Z,49.77
2023-05-25T16:23:12.975Z,49.56
2023-05-25T16:24:12.921Z,48.11
2023-05-25T16:25:12.832Z,48.59
2023-05-25T16:26:12.767Z,47.69
2023-05-25T16:27:12.728Z,47.79
2023-05-25T16:28:12.624Z,48.95
2023-05-25T16:29:12.556Z,50.02
2023-05-25T16:30:13.347Z,50.02
2023-05-25T16:31:12.412Z,50.98
2023-05-25T16:32:12.426Z,50.21
2023-05-25T16:33:12.351Z,50.50
2023-05-25T16:34:12.197Z,49.65
2023-05-25T16:35:12.130Z,49.92
2023-05-25T16:36:12.060Z,50.04
2023-05-25T16:37:11.995Z,49.75
2023-05-25T16:38:11.920Z,49.95
2023-05-25T16:39:11.850Z,49.95
2023-05-25T16:40:11.782Z,48.79
2023-05-25T16:41:11.703Z,49.07
2023-05-25T16:42:11.640Z,49.17
2023-05-25T16:43:11.564Z,49.95
2023-05-25T16:44:11.536Z,50.04
2023-05-25T16:45:11.425Z,51.01
2023-05-25T16:46:11.377Z,52.46
2023-05-25T16:47:11.282Z,53.33
2023-05-25T16:48:11.260Z,52.75
2023-05-25T16:49:11.135Z,53.81
2023-05-25T16:50:11.073Z,54.21
2023-05-25T16:51:10.998Z,53.72
2023-05-25T16:52:10.924Z,52.08
2023-05-25T16:53:10.857Z,53.63
2023-05-25T16:54:10.789Z,52.95
2023-05-25T16:55:10.710Z,52.95
2023-05-25T16:56:10.645Z,50.92
2023-05-25T16:57:10.569Z,52.75
2023-05-25T16:58:10.505Z,52.66
2023-05-25T16:59:10.429Z,53.23
2023-05-25T17:00:10.362Z,53.41
2023-05-25T17:01:10.310Z,53.23
2023-05-25T17:02:10.238Z,52.56
2023-05-25T17:03:10.239Z,52.46
2023-05-25T17:04:10.131Z,53.43
2023-05-25T17:05:10.026Z,51.68
2023-05-25T17:06:09.939Z,54.21
2023-05-25T17:07:09.866Z,52.46
2023-05-25T17:08:09.795Z,52.17
2023-05-25T17:09:09.726Z,52.95
2023-05-25T17:10:09.671Z,53.91
2023-05-25T17:11:09.594Z,53.81
2023-05-25T17:12:09.507Z,53.14
2023-05-25T17:13:09.435Z,52.17
2023-05-25T17:14:09.379Z,51.50
2023-05-25T17:15:09.290Z,50.62
2023-05-25T17:16:09.251Z,51.10
2023-05-25T17:17:09.159Z,51.10
2023-05-25T17:18:09.111Z,50.60
2023-05-25T17:19:09.012Z,50.89
2023-05-25T17:20:09.009Z,50.89
2023-05-25T17:21:08.870Z,51.08
2023-05-25T17:22:08.802Z,51.47
2023-05-25T17:23:08.727Z,51.66
2023-05-25T17:24:08.659Z,51.47
2023-05-25T17:25:08.580Z,51.73
2023-05-25T17:26:08.512Z,52.05
2023-05-25T17:27:08.446Z,52.02
2023-05-25T17:28:08.373Z,52.05
2023-05-25T17:29:08.300Z,52.63
2023-05-25T17:30:08.227Z,52.99
2023-05-25T17:31:09.224Z,53.19
2023-05-25T17:32:08.105Z,53.28
2023-05-25T17:33:08.050Z,54.35
2023-05-25T17:34:07.939Z,53.28
2023-05-25T17:35:07.871Z,53.47
2023-05-25T17:36:07.800Z,53.19
2023-05-25T17:37:07.732Z,53.28
2023-05-25T17:38:07.663Z,53.57
2023-05-25T17:39:07.589Z,53.28
2023-05-25T17:40:07.514Z,52.80
2023-05-25T17:41:07.684Z,52.58
2023-05-25T17:42:07.388Z,53.64
2023-05-25T17:43:07.297Z,53.55
2023-05-25T17:44:07.231Z,54.41
2023-05-25T17:45:07.158Z,54.03
2023-05-25T17:46:07.217Z,53.74
2023-05-25T17:47:08.399Z,54.90
2023-05-25T17:48:07.019Z,54.19
2023-05-25T17:49:06.872Z,54.19
2023-05-25T17:50:06.799Z,54.10
2023-05-25T17:51:07.083Z,54.97
2023-05-25T17:52:06.659Z,54.87
2023-05-25T17:53:06.581Z,55.26
2023-05-25T17:54:06.521Z,56.29
2023-05-25T17:55:06.440Z,56.39
2023-05-25T17:56:06.368Z,56.96
2023-05-25T17:57:06.661Z,57.35
2023-05-25T17:58:06.225Z,56.96
2023-05-25T17:59:06.148Z,57.93
2023-05-25T18:00:06.078Z,58.61
2023-05-25T18:01:06.059Z,58.12
2023-05-25T18:02:06.248Z,57.84
2023-05-25T18:03:06.046Z,58.10
2023-05-25T18:04:06.022Z,58.51
2023-05-25T18:05:05.771Z,58.58
2023-05-25T18:06:05.642Z,58.68
2023-05-25T18:07:05.578Z,59.35
2023-05-25T18:08:05.535Z,59.35
2023-05-25T18:09:05.436Z,59.25
2023-05-25T18:10:05.402Z,59.25
2023-05-25T18:11:05.562Z,59.16
2023-05-25T18:12:05.211Z,59.83
2023-05-25T18:13:05.133Z,59.83
2023-05-25T18:14:05.075Z,59.93
2023-05-25T18:15:04.995Z,60.41
2023-05-25T18:16:04.925Z,60.13
2023-05-25T18:17:05.109Z,61.28
2023-05-25T18:18:04.837Z,60.80
2023-05-25T18:19:04.702Z,62.25
2023-05-25T18:20:04.681Z,60.48
2023-05-25T18:21:04.663Z,60.48
2023-05-25T18:22:04.615Z,61.44
2023-05-25T18:23:04.420Z,61.74
2023-05-25T18:24:04.338Z,61.16
2023-05-25T18:25:04.272Z,60.28
2023-05-25T18:26:04.197Z,61.06
2023-05-25T18:27:04.180Z,63.67
2023-05-25T18:28:04.046Z,61.93
2023-05-25T18:29:03.999Z,61.44
2023-05-25T18:30:03.921Z,61.44
2023-05-25T18:31:03.920Z,61.03
2023-05-25T18:32:03.769Z,61.13
2023-05-25T18:33:03.716Z,60.64
2023-05-25T18:34:03.620Z,61.22
2023-05-25T18:35:03.534Z,61.03
2023-05-25T18:36:03.467Z,60.93
2023-05-25T18:37:03.661Z,60.74
2023-05-25T18:38:03.464Z,61.51
2023-05-25T18:39:03.251Z,61.90
2023-05-25T18:40:03.205Z,61.87
2023-05-25T18:41:03.105Z,61.51
2023-05-25T18:42:03.063Z,60.61
2023-05-25T18:43:03.015Z,61.41
2023-05-25T18:44:02.889Z,61.96
2023-05-25T18:45:02.802Z,61.29
2023-05-25T18:46:02.785Z,62.63
2023-05-25T18:47:02.655Z,62.73
2023-05-25T18:48:02.625Z,63.60
2023-05-25T18:49:02.514Z,65.14
2023-05-25T18:50:02.440Z,63.89
2023-05-25T18:51:02.363Z,64.86
2023-05-25T18:52:02.299Z,65.01
2023-05-25T18:53:02.220Z,64.92
2023-05-25T18:54:02.147Z,64.34
2023-05-25T18:55:02.078Z,63.38
2023-05-25T18:56:02.027Z,63.18
2023-05-25T18:57:01.936Z,62.60
2023-05-25T18:58:01.846Z,63.38
2023-05-25T18:59:01.774Z,63.38
2023-05-25T19:00:01.710Z,63.38
2023-05-25T19:01:01.627Z,63.57
2023-05-25T19:02:01.634Z,62.99
2023-05-25T19:03:01.631Z,63.85
2023-05-25T19:04:01.531Z,63.38
2023-05-25T19:05:01.343Z,63.54
2023-05-25T19:06:01.262Z,63.64
2023-05-25T19:07:01.189Z,63.92
2023-05-25T19:08:01.128Z,64.69
2023-05-25T19:09:01.040Z,65.37
2023-05-25T19:10:00.990Z,64.21
2023-05-25T19:11:00.892Z,63.82
2023-05-25T19:12:00.816Z,63.25
2023-05-25T19:13:00.746Z,63.54
2023-05-25T19:14:00.664Z,63.34
2023-05-25T19:15:00.612Z,64.31
2023-05-25T19:16:00.551Z,64.66
2023-05-25T19:17:00.522Z,64.66
2023-05-25T19:18:00.395Z,65.05
2023-05-25T19:19:00.305Z,66.01
2023-05-25T19:20:00.289Z,64.86
2023-05-25T19:21:00.144Z,65.24
2023-05-25T19:22:00.128Z,65.81
2023-05-25T19:23:00.012Z,66.20
2023-05-25T19:23:59.930Z,64.28
2023-05-25T19:25:01.095Z,64.86
2023-05-25T19:25:59.792Z,66.30
2023-05-25T19:26:59.705Z,67.93
2023-05-25T19:27:59.641Z,66.78
2023-05-25T19:28:59.560Z,67.93
2023-05-25T19:29:59.478Z,68.51
2023-05-25T19:30:59.406Z,69.73
2023-05-25T19:31:59.389Z,68.19
2023-05-25T19:32:59.268Z,66.65
2023-05-25T19:33:59.185Z,67.42
2023-05-25T19:34:59.112Z,67.61
2023-05-25T19:35:59.045Z,66.84
2023-05-25T19:37:07.578Z,68.06
2023-05-25T19:38:01.185Z,68.48
2023-05-25T19:38:58.813Z,68.67
2023-05-25T19:39:58.741Z,67.80
2023-05-25T19:40:58.669Z,66.91
2023-05-25T19:41:58.589Z,66.14
2023-05-25T19:42:58.516Z,66.52
2023-05-25T19:43:58.448Z,66.46
2023-05-25T19:44:58.362Z,67.58
2023-05-25T19:45:58.308Z,67.99
2023-05-25T19:46:58.223Z,67.32
2023-05-25T19:47:58.194Z,67.29
2023-05-25T19:48:58.069Z,67.00
2023-05-25T19:49:57.999Z,66.42
2023-05-25T19:50:57.918Z,66.91
2023-05-25T19:51:57.846Z,68.35
2023-05-25T19:52:57.769Z,69.02
2023-05-25T19:53:57.692Z,69.31
2023-05-25T19:54:57.620Z,69.50
2023-05-25T19:55:57.542Z,69.60
2023-05-25T19:56:57.482Z,70.56
2023-05-25T19:57:57.389Z,70.17
2023-05-25T19:58:57.321Z,69.27
2023-05-25T19:59:57.246Z,69.46
2023-05-25T20:00:57.239Z,67.74
2023-05-25T20:01:57.093Z,66.87
2023-05-25T20:02:57.140Z,67.07
2023-05-25T20:03:56.958Z,66.30
2023-05-25T20:04:56.892Z,66.49
2023-05-25T20:05:56.802Z,66.20
2023-05-25T20:06:56.719Z,66.36
2023-05-25T20:07:56.641Z,66.20
2023-05-25T20:08:56.576Z,65.88
2023-05-25T20:09:56.496Z,65.97
2023-05-25T20:10:56.431Z,64.66
2023-05-25T20:11:56.349Z,64.95
2023-05-25T20:12:56.269Z,65.30
2023-05-25T20:13:56.194Z,64.63
2023-05-25T20:14:56.120Z,64.05
2023-05-25T20:15:56.064Z,64.34
2023-05-25T20:16:56.203Z,63.38
2023-05-25T20:17:55.975Z,64.05
2023-05-25T20:18:55.811Z,64.63
2023-05-25T20:19:55.789Z,64.72
2023-05-25T20:20:55.667Z,64.34
2023-05-25T20:21:55.591Z,65.49
2023-05-25T20:22:55.522Z,66.26
2023-05-25T20:23:55.442Z,66.36
2023-05-25T20:24:55.361Z,65.97
2023-05-25T20:25:55.291Z,65.49
2023-05-25T20:26:55.214Z,66.16
2023-05-25T20:27:55.139Z,67.03
2023-05-25T20:28:55.061Z,65.88
2023-05-25T20:29:54.998Z,66.03
2023-05-25T20:30:54.911Z,66.33
2023-05-25T20:31:54.868Z,66.55
2023-05-25T20:32:54.810Z,66.71
2023-05-25T20:33:54.688Z,67.47
2023-05-25T20:34:54.611Z,69.01
2023-05-25T20:35:54.531Z,69.40
2023-05-25T20:36:54.456Z,70.07
2023-05-25T20:37:54.383Z,68.63
2023-05-25T20:38:54.310Z,66.71
2023-05-25T20:39:54.242Z,66.71
2023-05-25T20:40:54.150Z,67.67
2023-05-25T20:41:54.086Z,67.76
2023-05-25T20:42:54.005Z,67.00
2023-05-25T20:43:53.929Z,67.57
2023-05-25T20:44:53.861Z,69.59
2023-05-25T20:45:53.793Z,69.87
2023-05-25T20:46:53.712Z,70.36
2023-05-25T20:47:53.648Z,68.98
2023-05-25T20:48:53.664Z,68.79
2023-05-25T20:49:53.477Z,69.46
2023-05-25T20:50:53.409Z,69.26
2023-05-25T20:51:53.333Z,68.79
2023-05-25T20:52:53.267Z,68.98
2023-05-25T20:53:53.167Z,68.21
2023-05-25T20:54:53.106Z,68.79
2023-05-25T20:55:53.026Z,68.30
2023-05-25T20:56:52.952Z,69.36
2023-05-25T20:57:52.883Z,71.57
2023-05-25T20:58:52.794Z,70.42
2023-05-25T20:59:52.731Z,69.93
2023-05-25T21:00:52.650Z,70.03
2023-05-25T21:01:52.620Z,70.23
2023-05-25T21:02:52.552Z,70.70
2023-05-25T21:03:52.462Z,70.90
2023-05-25T21:04:52.341Z,69.93
2023-05-25T21:05:52.266Z,71.19
2023-05-25T21:06:52.195Z,70.80
2023-05-25T21:07:52.120Z,70.99
2023-05-25T21:08:52.041Z,71.09
2023-05-25T21:09:51.959Z,71.09
2023-05-25T21:10:51.898Z,70.32
2023-05-25T21:11:51.809Z,70.99
2023-05-25T21:12:51.740Z,71.09
2023-05-25T21:13:51.667Z,70.96
2023-05-25T21:14:51.592Z,72.01
2023-05-25T21:15:51.543Z,70.86
2023-05-25T21:16:51.433Z,71.34
2023-05-25T21:17:51.423Z,71.92
2023-05-25T21:18:51.281Z,71.05
2023-05-25T21:19:51.199Z,71.92
2023-05-25T21:20:51.121Z,72.11
2023-05-25T21:21:51.044Z,73.35
2023-05-25T21:22:50.971Z,73.80
2023-05-25T21:23:50.891Z,73.22
2023-05-25T21:24:50.823Z,73.22
2023-05-25T21:25:50.752Z,73.32
2023-05-25T21:26:50.678Z,73.41
2023-05-25T21:27:50.592Z,73.13
2023-05-25T21:28:50.515Z,74.18
2023-05-25T21:29:50.442Z,75.58
2023-05-25T21:30:50.369Z,75.87
2023-05-25T21:31:50.315Z,75.29
2023-05-25T21:32:50.271Z,75.58
2023-05-25T21:33:50.132Z,76.06
2023-05-25T21:34:50.077Z,76.54
2023-05-25T21:35:49.972Z,76.73
2023-05-25T21:36:49.910Z,77.11
2023-05-25T21:37:49.829Z,77.50
2023-05-25T21:38:49.744Z,77.59
2023-05-25T21:39:49.677Z,77.11
2023-05-25T21:40:49.604Z,77.02
2023-05-25T21:41:49.522Z,76.06
2023-05-25T21:42:51.252Z,76.54
2023-05-25T21:43:49.366Z,77.11
2023-05-25T21:44:49.284Z,77.40
2023-05-25T21:45:49.215Z,77.97
2023-05-25T21:46:49.148Z,78.27
2023-05-25T21:47:49.176Z,78.45
2023-05-25T21:48:48.982Z,78.93
2023-05-25T21:49:48.903Z,79.08
2023-05-25T21:50:48.832Z,79.85
2023-05-25T21:51:48.750Z,80.71
2023-05-25T21:52:48.671Z,81.57
2023-05-25T21:53:48.593Z,80.24
2023-05-25T21:54:48.515Z,80.33
2023-05-25T21:55:48.445Z,80.62
2023-05-25T21:56:48.372Z,80.52
2023-05-25T21:57:48.284Z,80.00
2023-05-25T21:58:48.207Z,80.58
2023-05-25T21:59:48.140Z,80.67
2023-05-25T22:00:48.101Z,81.82
2023-05-25T22:01:47.986Z,82.49
2023-05-25T22:02:47.935Z,82.11
2023-05-25T22:03:47.826Z,82.49
2023-05-25T22:04:47.750Z,82.68
2023-05-25T22:05:47.675Z,82.40
2023-05-25T22:06:47.600Z,82.30
2023-05-25T22:07:47.515Z,82.74
2023-05-25T22:08:47.437Z,82.68
2023-05-25T22:09:47.359Z,83.06
2023-05-25T22:10:47.284Z,83.12
2023-05-25T22:11:47.209Z,83.31
2023-05-25T22:12:47.145Z,82.68
2023-05-25T22:13:47.050Z,82.45
2023-05-25T22:14:46.978Z,82.83
2023-05-25T22:15:47.094Z,83.03
2023-05-25T22:16:46.854Z,82.45
2023-05-25T22:17:46.779Z,83.12
2023-05-25T22:18:46.670Z,83.89
2023-05-25T22:19:52.154Z,83.50
2023-05-25T22:20:46.540Z,83.89
2023-05-25T22:21:46.440Z,82.83
2023-05-25T22:22:46.354Z,83.50
2023-05-25T22:23:46.293Z,83.03
2023-05-25T22:24:46.203Z,83.12
2023-05-25T22:25:46.280Z,83.03
2023-05-25T22:26:46.048Z,83.12
2023-05-25T22:27:45.969Z,83.31
2023-05-25T22:28:45.899Z,83.22
2023-05-25T22:29:45.820Z,83.98
2023-05-25T22:30:45.826Z,83.89
2023-05-25T22:31:45.665Z,83.89
2023-05-25T22:32:45.643Z,84.27
2023-05-25T22:33:45.507Z,83.12
2023-05-25T22:34:45.436Z,83.22
2023-05-25T22:35:45.601Z,83.69
2023-05-25T22:36:45.274Z,84.27
2023-05-25T22:37:45.200Z,83.89
2023-05-25T22:38:45.116Z,83.98
2023-05-25T22:39:45.045Z,83.60
2023-05-25T22:40:44.967Z,83.89
2023-05-25T22:41:44.919Z,83.65
2023-05-25T22:42:44.811Z,83.27
2023-05-25T22:43:44.729Z,82.98
2023-05-25T22:44:44.661Z,83.75
2023-05-25T22:45:44.830Z,84.23
2023-05-25T22:46:44.557Z,84.32
2023-05-25T22:47:44.540Z,84.13
2023-05-25T22:48:44.346Z,84.52
2023-05-25T22:49:44.500Z,83.75
2023-05-25T22:50:44.191Z,83.65
2023-05-25T22:51:44.108Z,83.65
2023-05-25T22:52:44.035Z,83.75
2023-05-25T22:53:43.954Z,84.03
2023-05-25T22:54:43.883Z,83.75
2023-05-25T22:55:46.548Z,84.70
2023-05-25T22:56:43.718Z,84.80
2023-05-25T22:57:43.643Z,84.32
2023-05-25T22:58:43.575Z,84.80
2023-05-25T22:59:43.517Z,84.61
2023-05-25T23:00:43.422Z,84.52
2023-05-25T23:01:43.360Z,84.89
2023-05-25T23:02:43.314Z,84.89
2023-05-25T23:03:43.234Z,84.61
2023-05-25T23:04:43.106Z,84.70
2023-05-25T23:05:43.030Z,84.99
2023-05-25T23:06:42.946Z,84.32
2023-05-25T23:07:42.864Z,84.56
2023-05-25T23:08:42.795Z,84.95
2023-05-25T23:09:42.711Z,84.47
2023-05-25T23:10:42.633Z,84.95
2023-05-25T23:11:42.561Z,84.85
2023-05-25T23:12:42.481Z,85.52
2023-05-25T23:13:42.395Z,85.52
2023-05-25T23:14:42.324Z,84.95
2023-05-25T23:15:42.242Z,84.95
2023-05-25T23:16:42.241Z,84.28
2023-05-25T23:17:42.112Z,83.99
2023-05-25T23:18:42.021Z,84.76
2023-05-25T23:19:41.933Z,84.56
2023-05-25T23:20:41.980Z,84.56
2023-05-25T23:21:41.776Z,84.47
2023-05-25T23:22:41.697Z,84.09
2023-05-25T23:23:41.623Z,85.05
2023-05-25T23:24:41.541Z,84.85
2023-05-25T23:25:41.461Z,85.05
2023-05-25T23:26:41.389Z,83.90
2023-05-25T23:27:41.304Z,83.13
2023-05-25T23:28:41.261Z,83.04
2023-05-25T23:29:41.153Z,83.99
2023-05-25T23:30:41.074Z,84.66
2023-05-25T23:31:41.057Z,84.76
2023-05-25T23:32:40.984Z,84.66
2023-05-25T23:33:40.836Z,84.76
2023-05-25T23:34:40.768Z,84.76
2023-05-25T23:35:40.692Z,84.76
2023-05-25T23:36:40.622Z,84.85
2023-05-25T23:37:40.528Z,84.19
2023-05-25T23:38:40.458Z,83.99
2023-05-25T23:39:40.373Z,83.99
2023-05-25T23:40:40.285Z,84.19
2023-05-25T23:41:40.208Z,84.66
2023-05-25T23:42:40.140Z,84.66
2023-05-25T23:43:40.066Z,85.33
2023-05-25T23:44:39.988Z,85.14
2023-05-25T23:45:39.926Z,85.52
2023-05-25T23:46:39.855Z,85.52
2023-05-25T23:47:39.782Z,85.96
2023-05-25T23:48:39.665Z,86.00
2023-05-25T23:49:39.588Z,86.38
2023-05-25T23:50:39.515Z,87.05
2023-05-25T23:51:39.429Z,86.76
2023-05-25T23:52:39.352Z,86.38
2023-05-25T23:53:39.289Z,86.38
2023-05-25T23:54:39.201Z,86.19
2023-05-25T23:55:39.122Z,86.29
2023-05-25T23:56:39.049Z,86.19
2023-05-25T23:57:38.979Z,86.24
2023-05-25T23:58:38.882Z,87.05
2023-05-25T23:59:38.816Z,86.96
